Time;durP1;ratioP1;P1;durP2;ratioP2;P2;SDS_P1;SDS_P2;PMS_P1;PMS_P2;Temp;Humidity;BMP_temperature;BMP_pressure;BME280_temperature;BME280_humidity;BME280_pressure;Samples;Min_cycle;Max_cycle;Signal;HPM_P1;HPM_P2
2022/03/23 00:01:17;;;;;;;17.88;7.88;;;;;;;;;;5072644;28;20062;-73
2022/03/23 00:03:45;;;;;;;14.82;7.78;;;;;;;;;;5073884;28;20037;-72
2022/03/23 00:06:13;;;;;;;16.80;7.45;;;;;;;;;;5075162;28;20091;-73
2022/03/23 00:08:39;;;;;;;15.77;8.02;;;;;;;;;;5075742;28;20063;-73
2022/03/23 00:11:06;;;;;;;16.23;7.50;;;;;;;;;;5075466;28;20077;-73
2022/03/23 00:13:32;;;;;;;13.40;7.65;;;;;;;;;;5056676;28;20016;-73
2022/03/23 00:15:59;;;;;;;13.68;6.70;;;;;;;;;;5072129;28;20032;-73
2022/03/23 00:18:26;;;;;;;12.95;6.90;;;;;;;;;;5075772;28;20051;-72
2022/03/23 00:20:52;;;;;;;15.90;7.30;;;;;;;;;;5075065;28;20516;-73
2022/03/23 00:23:18;;;;;;;14.80;8.18;;;;;;;;;;5075270;28;20405;-73
2022/03/23 00:25:45;;;;;;;19.92;8.05;;;;;;;;;;5075410;28;20028;-73
2022/03/23 00:28:11;;;;;;;23.70;8.20;;;;;;;;;;5071338;28;20478;-73
2022/03/23 00:30:38;;;;;;;20.45;6.97;;;;;;;;;;5075560;28;20030;-73
2022/03/23 00:33:05;;;;;;;14.38;7.20;;;;;;;;;;5075256;28;20511;-73
2022/03/23 00:35:31;;;;;;;19.20;7.68;;;;;;;;;;5075114;28;20031;-73
2022/03/23 00:37:58;;;;;;;14.10;7.38;;;;;;;;;;5057236;28;20025;-73
2022/03/23 00:40:30;;;;;;;15.68;8.02;;;;;;;;;;5073040;28;20035;-73
2022/03/23 00:43:01;;;;;;;14.98;7.28;;;;;;;;;;5072099;28;20020;-73
2022/03/23 00:45:29;;;;;;;16.45;7.43;;;;;;;;;;5075881;28;20037;-73
2022/03/23 00:47:56;;;;;;;16.60;7.63;;;;;;;;;;5075176;28;20017;-73
2022/03/23 00:50:22;;;;;;;17.65;7.88;;;;;;;;;;5075148;28;20024;-73
2022/03/23 00:52:49;;;;;;;15.00;7.28;;;;;;;;;;5075304;28;20027;-73
2022/03/23 00:55:16;;;;;;;18.27;7.55;;;;;;;;;;5071393;28;20067;-73
2022/03/23 00:57:43;;;;;;;13.25;6.85;;;;;;;;;;5074369;28;20021;-73
2022/03/23 01:00:12;;;;;;;15.70;8.25;;;;;;;;;;5075326;28;20020;-73
2022/03/23 01:02:43;;;;;;;14.27;7.15;;;;;;;;;;5075021;28;20012;-73
2022/03/23 01:05:10;;;;;;;16.40;7.30;;;;;;;;;;5074936;28;20041;-73
2022/03/23 01:07:37;;;;;;;16.88;6.85;;;;;;;;;;5074434;28;20024;-73
2022/03/23 01:10:04;;;;;;;13.48;6.88;;;;;;;;;;5071092;28;20047;-73
2022/03/23 01:12:30;;;;;;;12.52;7.10;;;;;;;;;;5075891;28;20021;-73
2022/03/23 01:14:57;;;;;;;10.98;6.35;;;;;;;;;;5074817;28;20024;-73
2022/03/23 01:17:24;;;;;;;13.38;7.30;;;;;;;;;;5077653;28;20025;-73
2022/03/23 01:19:51;;;;;;;12.10;6.45;;;;;;;;;;5078465;28;20016;-73
2022/03/23 01:22:17;;;;;;;15.75;6.63;;;;;;;;;;5057247;28;20114;-73
2022/03/23 01:24:44;;;;;;;20.98;7.03;;;;;;;;;;5077220;28;20024;-73
2022/03/23 01:27:11;;;;;;;13.80;7.00;;;;;;;;;;5077892;28;20021;-73
2022/03/23 01:29:38;;;;;;;12.25;7.13;;;;;;;;;;5078147;28;20032;-73
2022/03/23 01:32:05;;;;;;;12.00;6.38;;;;;;;;;;5077892;28;20024;-73
2022/03/23 01:34:31;;;;;;;12.77;6.85;;;;;;;;;;5076843;28;20030;-73
2022/03/23 01:36:57;;;;;;;12.85;6.53;;;;;;;;;;5074900;28;20553;-73
2022/03/23 01:39:24;;;;;;;17.73;6.63;;;;;;;;;;5061058;28;20081;-73
2022/03/23 01:41:50;;;;;;;15.18;6.53;;;;;;;;;;5078103;28;20413;-73
2022/03/23 01:44:17;;;;;;;13.95;6.32;;;;;;;;;;5077884;28;20486;-73
2022/03/23 01:47:00;;;;;;;13.88;6.35;;;;;;;;;;5077462;28;20024;-73
2022/03/23 01:49:27;;;;;;;12.80;7.00;;;;;;;;;;5075745;28;20086;-73
2022/03/23 01:51:53;;;;;;;14.95;6.43;;;;;;;;;;5075840;28;20017;-73
2022/03/23 01:54:20;;;;;;;14.63;6.63;;;;;;;;;;5076188;28;20041;-73
2022/03/23 01:56:47;;;;;;;13.90;6.90;;;;;;;;;;5077679;28;20486;-73
2022/03/23 01:59:13;;;;;;;18.00;6.88;;;;;;;;;;5077854;28;20021;-73
2022/03/23 02:01:40;;;;;;;12.27;6.35;;;;;;;;;;5077230;28;20503;-73
2022/03/23 02:04:06;;;;;;;12.57;7.00;;;;;;;;;;5073296;28;20044;-73
2022/03/23 02:06:32;;;;;;;16.27;7.32;;;;;;;;;;5078219;28;20025;-73
2022/03/23 02:08:59;;;;;;;18.08;7.00;;;;;;;;;;5077548;28;20499;-73
2022/03/23 02:11:25;;;;;;;12.18;6.72;;;;;;;;;;5077852;28;20028;-73
2022/03/23 02:13:53;;;;;;;19.33;6.60;;;;;;;;;;5069057;28;20020;-73
2022/03/23 02:16:20;;;;;;;17.30;6.70;;;;;;;;;;5074309;28;20024;-73
2022/03/23 02:18:46;;;;;;;13.27;6.05;;;;;;;;;;5058066;28;20029;-73
2022/03/23 02:21:16;;;;;;;12.40;6.63;;;;;;;;;;5077870;28;20028;-73
2022/03/23 02:23:42;;;;;;;12.50;6.43;;;;;;;;;;5059212;28;20157;-73
2022/03/23 02:26:09;;;;;;;13.82;6.20;;;;;;;;;;5077188;28;20392;-72
2022/03/23 02:28:39;;;;;;;14.07;5.70;;;;;;;;;;5058320;28;20032;-73
2022/03/23 02:31:05;;;;;;;11.48;5.85;;;;;;;;;;5073198;28;20037;-73
2022/03/23 02:33:32;;;;;;;12.40;6.18;;;;;;;;;;5077669;28;20013;-73
2022/03/23 02:35:58;;;;;;;14.90;6.93;;;;;;;;;;5077034;28;20404;-73
2022/03/23 02:38:24;;;;;;;11.57;6.47;;;;;;;;;;5076926;28;20362;-73
2022/03/23 02:40:51;;;;;;;12.65;6.47;;;;;;;;;;5076934;28;20117;-72
2022/03/23 02:43:18;;;;;;;12.30;6.65;;;;;;;;;;5073202;28;20020;-72
2022/03/23 02:45:44;;;;;;;13.60;6.47;;;;;;;;;;5076002;28;20034;-73
2022/03/23 02:48:10;;;;;;;17.35;7.07;;;;;;;;;;5076141;28;20028;-73
2022/03/23 02:50:36;;;;;;;14.02;7.20;;;;;;;;;;5076954;28;20069;-73
2022/03/23 03:04:17;;;;;;;16.33;6.90;;;;;;;;;;5058702;28;20037;-73
2022/03/23 03:06:43;;;;;;;14.07;7.50;;;;;;;;;;5075478;28;20024;-73
2022/03/23 03:09:10;;;;;;;12.73;7.45;;;;;;;;;;5076070;28;20028;-73
2022/03/23 03:11:36;;;;;;;12.88;7.15;;;;;;;;;;5076283;28;20389;-73
2022/03/23 03:14:03;;;;;;;12.77;6.57;;;;;;;;;;5075842;28;20511;-73
2022/03/23 03:16:29;;;;;;;13.85;7.45;;;;;;;;;;5074809;28;20035;-73
2022/03/23 03:18:55;;;;;;;14.48;7.35;;;;;;;;;;5073049;28;20037;-73
2022/03/23 03:21:22;;;;;;;11.35;7.13;;;;;;;;;;5076799;28;20397;-73
2022/03/23 03:23:48;;;;;;;11.82;6.50;;;;;;;;;;5076061;28;20036;-73
2022/03/23 03:26:16;;;;;;;13.35;6.50;;;;;;;;;;5076199;28;20025;-73
2022/03/23 03:28:43;;;;;;;11.65;7.22;;;;;;;;;;5075550;28;20020;-73
2022/03/23 03:31:10;;;;;;;13.60;7.25;;;;;;;;;;5071898;28;20034;-73
2022/03/23 03:33:37;;;;;;;13.40;7.22;;;;;;;;;;5076128;28;20029;-73
2022/03/23 03:36:04;;;;;;;12.82;6.93;;;;;;;;;;5057911;28;20420;-73
2022/03/23 03:38:31;;;;;;;15.80;7.65;;;;;;;;;;5075536;28;20013;-73
2022/03/23 03:40:58;;;;;;;11.73;6.55;;;;;;;;;;5075915;28;20042;-73
2022/03/23 03:43:24;;;;;;;13.15;7.30;;;;;;;;;;5073219;28;20046;-73
2022/03/23 03:45:51;;;;;;;17.00;7.20;;;;;;;;;;5073658;28;20048;-73
2022/03/23 03:48:18;;;;;;;13.45;7.15;;;;;;;;;;5074485;28;20039;-73
2022/03/23 03:50:44;;;;;;;16.42;6.93;;;;;;;;;;5075771;28;20016;-73
2022/03/23 03:53:11;;;;;;;14.23;7.20;;;;;;;;;;5075653;28;20030;-72
2022/03/23 03:55:37;;;;;;;13.70;7.45;;;;;;;;;;5074888;28;20034;-73
2022/03/23 03:58:04;;;;;;;15.20;7.15;;;;;;;;;;5071751;28;20012;-73
2022/03/23 04:00:31;;;;;;;12.68;7.80;;;;;;;;;;5076276;28;20036;-73
2022/03/23 04:02:58;;;;;;;12.48;8.07;;;;;;;;;;5075515;28;20031;-73
2022/03/23 04:05:24;;;;;;;13.15;7.53;;;;;;;;;;5075853;28;20028;-73
2022/03/23 04:07:50;;;;;;;16.45;7.18;;;;;;;;;;5075239;28;20024;-73
2022/03/23 04:10:17;;;;;;;16.30;8.07;;;;;;;;;;5071568;28;20022;-73
2022/03/23 04:12:43;;;;;;;12.25;7.10;;;;;;;;;;5074099;28;20029;-73
2022/03/23 04:15:09;;;;;;;15.77;7.97;;;;;;;;;;5074619;28;20302;-73
2022/03/23 04:17:36;;;;;;;15.57;7.45;;;;;;;;;;5075023;28;20013;-73
2022/03/23 04:20:03;;;;;;;12.40;7.03;;;;;;;;;;5074980;28;20497;-73
2022/03/23 04:22:29;;;;;;;16.58;7.03;;;;;;;;;;5055968;28;20028;-73
2022/03/23 04:24:56;;;;;;;17.17;7.70;;;;;;;;;;5071679;28;20036;-72
2022/03/23 04:27:22;;;;;;;13.40;6.60;;;;;;;;;;5075716;28;20032;-73
2022/03/23 04:29:48;;;;;;;16.67;7.00;;;;;;;;;;5075179;28;20050;-73
2022/03/23 04:32:15;;;;;;;16.80;7.53;;;;;;;;;;5074846;28;20389;-73
2022/03/23 04:34:41;;;;;;;16.08;7.43;;;;;;;;;;5075116;28;20020;-73
2022/03/23 04:37:07;;;;;;;13.93;7.25;;;;;;;;;;5070697;28;20054;-73
2022/03/23 04:39:34;;;;;;;14.70;7.57;;;;;;;;;;5082640;28;20053;-73
2022/03/23 04:42:00;;;;;;;16.33;6.47;;;;;;;;;;5057709;28;20388;-73
2022/03/23 04:44:26;;;;;;;17.08;7.45;;;;;;;;;;5074704;28;20042;-73
2022/03/23 04:46:53;;;;;;;14.27;7.18;;;;;;;;;;5074739;28;20025;-73
2022/03/23 04:49:19;;;;;;;18.88;7.82;;;;;;;;;;5072065;28;20028;-73
2022/03/23 04:51:45;;;;;;;13.40;7.68;;;;;;;;;;5057666;28;20016;-73
2022/03/23 04:54:12;;;;;;;17.08;7.22;;;;;;;;;;5078641;28;20037;-73
2022/03/23 04:56:38;;;;;;;15.52;7.30;;;;;;;;;;5078468;28;20025;-73
2022/03/23 04:59:05;;;;;;;14.93;7.72;;;;;;;;;;5078436;28;20392;-73
2022/03/23 05:01:32;;;;;;;16.17;7.95;;;;;;;;;;5077330;28;20027;-73
2022/03/23 05:03:59;;;;;;;11.65;7.57;;;;;;;;;;5074733;28;20078;-73
2022/03/23 05:06:25;;;;;;;14.93;7.80;;;;;;;;;;5079357;28;20033;-73
2022/03/23 05:08:52;;;;;;;14.93;7.57;;;;;;;;;;5077983;28;20025;-73
2022/03/23 05:11:18;;;;;;;14.07;6.97;;;;;;;;;;5078226;28;20490;-72
2022/03/23 05:13:44;;;;;;;11.10;6.90;;;;;;;;;;5078478;28;20020;-73
2022/03/23 05:16:11;;;;;;;14.18;7.28;;;;;;;;;;5074111;28;20549;-73
2022/03/23 05:18:37;;;;;;;12.45;7.45;;;;;;;;;;5078828;28;20021;-73
2022/03/23 05:21:04;;;;;;;10.52;7.32;;;;;;;;;;5078365;28;20024;-72
2022/03/23 05:23:30;;;;;;;13.52;7.10;;;;;;;;;;5077688;28;20025;-73
2022/03/23 05:25:57;;;;;;;13.38;7.88;;;;;;;;;;5078344;28;20028;-73
2022/03/23 05:28:23;;;;;;;17.90;7.95;;;;;;;;;;5075623;28;20029;-73
2022/03/23 05:30:50;;;;;;;19.15;7.90;;;;;;;;;;5076103;28;20032;-73
2022/03/23 05:33:16;;;;;;;15.23;7.82;;;;;;;;;;5078537;28;20500;-73
2022/03/23 05:35:42;;;;;;;15.75;8.23;;;;;;;;;;5078191;28;20086;-73
2022/03/23 05:38:08;;;;;;;15.10;7.97;;;;;;;;;;5077396;28;20021;-73
2022/03/23 05:40:35;;;;;;;15.25;8.23;;;;;;;;;;5059368;28;20027;-73
2022/03/23 05:43:01;;;;;;;21.40;8.43;;;;;;;;;;5074324;28;20052;-73
2022/03/23 05:45:27;;;;;;;13.40;7.93;;;;;;;;;;5078284;28;20047;-73
2022/03/23 05:47:56;;;;;;;14.75;7.55;;;;;;;;;;5077734;28;20035;-73
2022/03/23 05:50:22;;;;;;;12.20;6.68;;;;;;;;;;5077621;28;20299;-73
2022/03/23 05:52:48;;;;;;;14.70;7.47;;;;;;;;;;5077288;28;20085;-73
2022/03/23 05:55:15;;;;;;;15.10;7.15;;;;;;;;;;5073917;28;20055;-72
2022/03/23 05:57:42;;;;;;;11.20;7.13;;;;;;;;;;5076972;28;20029;-73
2022/03/23 06:00:10;;;;;;;22.05;8.02;;;;;;;;;;5077909;28;20028;-73
2022/03/23 06:02:36;;;;;;;17.23;7.60;;;;;;;;;;5076973;28;20020;-72
2022/03/23 06:05:03;;;;;;;11.60;7.53;;;;;;;;;;5077389;28;20047;-73
2022/03/23 06:07:29;;;;;;;14.88;7.80;;;;;;;;;;5075405;28;20024;-73
2022/03/23 06:09:55;;;;;;;17.00;8.48;;;;;;;;;;5056445;28;20040;-73
2022/03/23 06:12:22;;;;;;;14.35;8.05;;;;;;;;;;5078064;28;20446;-73
2022/03/23 06:14:48;;;;;;;16.65;8.57;;;;;;;;;;5077456;28;20013;-73
2022/03/23 06:17:15;;;;;;;18.30;7.80;;;;;;;;;;5077291;28;20024;-73
2022/03/23 06:19:41;;;;;;;18.48;8.48;;;;;;;;;;5077154;28;20016;-73
2022/03/23 06:22:08;;;;;;;15.68;8.07;;;;;;;;;;5072474;28;20069;-73
2022/03/23 06:24:34;;;;;;;14.07;7.68;;;;;;;;;;5084901;28;20047;-73
2022/03/23 06:27:01;;;;;;;15.05;7.53;;;;;;;;;;5077769;28;20040;-73
2022/03/23 06:29:28;;;;;;;13.60;7.13;;;;;;;;;;5077000;28;20017;-72
2022/03/23 06:31:55;;;;;;;14.50;7.90;;;;;;;;;;5077159;28;20034;-73
2022/03/23 06:34:21;;;;;;;11.77;7.30;;;;;;;;;;5074131;28;20027;-73
2022/03/23 06:36:47;;;;;;;10.63;6.70;;;;;;;;;;5074742;28;20020;-73
2022/03/23 06:39:14;;;;;;;16.70;7.93;;;;;;;;;;5077474;28;20035;-72
2022/03/23 06:41:40;;;;;;;20.40;7.63;;;;;;;;;;5076809;28;20031;-73
2022/03/23 06:44:06;;;;;;;14.82;8.63;;;;;;;;;;5076453;28;20032;-73
2022/03/23 06:46:33;;;;;;;15.93;7.85;;;;;;;;;;5075662;28;20027;-73
2022/03/23 06:48:59;;;;;;;12.82;7.20;;;;;;;;;;5073245;28;20043;-73
2022/03/23 06:51:26;;;;;;;13.63;7.93;;;;;;;;;;5077177;28;20032;-73
2022/03/23 06:53:52;;;;;;;12.98;7.43;;;;;;;;;;5076393;28;20040;-73
2022/03/23 06:56:19;;;;;;;19.60;7.78;;;;;;;;;;5076463;28;20404;-73
2022/03/23 06:58:45;;;;;;;13.23;7.55;;;;;;;;;;5058766;28;20017;-73
2022/03/23 07:01:11;;;;;;;13.02;7.05;;;;;;;;;;5072641;28;20020;-73
2022/03/23 07:03:38;;;;;;;13.05;7.35;;;;;;;;;;5076479;28;20656;-73
2022/03/23 07:06:04;;;;;;;16.08;7.15;;;;;;;;;;5076221;28;20035;-73
2022/03/23 07:11:16;;;;;;;13.38;7.07;;;;;;;;;;5076253;28;20020;-73
2022/03/23 07:13:42;;;;;;;13.95;7.25;;;;;;;;;;5075677;28;20027;-73
2022/03/23 07:16:08;;;;;;;13.85;6.82;;;;;;;;;;5071843;28;20028;-73
2022/03/23 07:18:35;;;;;;;11.55;6.85;;;;;;;;;;5083904;28;20020;-73
2022/03/23 07:21:04;;;;;;;24.77;8.13;;;;;;;;;;5076286;28;20027;-73
2022/03/23 07:23:31;;;;;;;14.18;7.15;;;;;;;;;;5075859;28;20527;-73
2022/03/23 07:25:57;;;;;;;13.63;6.90;;;;;;;;;;5075963;28;20371;-73
2022/03/23 07:28:23;;;;;;;13.13;7.00;;;;;;;;;;5056141;28;20039;-73
2022/03/23 07:30:50;;;;;;;11.80;7.30;;;;;;;;;;5071051;28;20032;-73
2022/03/23 07:33:16;;;;;;;10.15;6.63;;;;;;;;;;5075123;28;20040;-72
2022/03/23 07:35:43;;;;;;;13.25;7.07;;;;;;;;;;5083399;28;20042;-73
2022/03/23 07:38:09;;;;;;;12.82;6.32;;;;;;;;;;5082758;28;20028;-73
2022/03/23 07:40:36;;;;;;;13.23;6.68;;;;;;;;;;5074397;28;20434;-73
2022/03/23 07:43:03;;;;;;;9.60;6.10;;;;;;;;;;5071754;28;20036;-73
2022/03/23 07:45:29;;;;;;;11.85;6.53;;;;;;;;;;5075555;28;20033;-73
2022/03/23 07:47:55;;;;;;;9.43;6.45;;;;;;;;;;5074876;28;20035;-73
2022/03/23 07:50:22;;;;;;;10.43;6.25;;;;;;;;;;5074477;28;20029;-73
2022/03/23 07:52:49;;;;;;;11.88;6.88;;;;;;;;;;5074345;28;20396;-73
2022/03/23 07:55:16;;;;;;;16.05;6.55;;;;;;;;;;5053166;28;20600;-73
2022/03/23 07:57:42;;;;;;;9.98;6.22;;;;;;;;;;5074578;28;20047;-73
2022/03/23 08:00:10;;;;;;;10.65;6.68;;;;;;;;;;5074974;28;20085;-73
2022/03/23 08:02:37;;;;;;;12.75;6.50;;;;;;;;;;5074215;28;20015;-71
2022/03/23 08:05:04;;;;;;;10.63;6.45;;;;;;;;;;5074045;28;20032;-71
2022/03/23 08:07:31;;;;;;;11.20;6.05;;;;;;;;;;5055392;28;20019;-71
2022/03/23 08:09:57;;;;;;;8.25;5.90;;;;;;;;;;5071933;28;20032;-71
2022/03/23 08:12:23;;;;;;;10.98;5.63;;;;;;;;;;5075395;28;20021;-71
2022/03/23 08:14:50;;;;;;;8.85;6.00;;;;;;;;;;5074574;28;20042;-71
2022/03/23 08:17:16;;;;;;;14.20;6.30;;;;;;;;;;5073963;28;20020;-71
2022/03/23 08:19:42;;;;;;;10.18;6.20;;;;;;;;;;5069413;28;20032;-71
2022/03/23 08:22:09;;;;;;;12.48;6.13;;;;;;;;;;5070804;28;20027;-70
2022/03/23 08:24:36;;;;;;;10.15;6.00;;;;;;;;;;5081800;28;20044;-71
2022/03/23 08:27:02;;;;;;;13.20;6.75;;;;;;;;;;5079038;28;20028;-71
2022/03/23 08:29:28;;;;;;;12.27;6.80;;;;;;;;;;5078492;28;20017;-71
2022/03/23 08:31:55;;;;;;;12.18;6.13;;;;;;;;;;5077636;28;20022;-71
2022/03/23 08:34:21;;;;;;;9.20;6.15;;;;;;;;;;5075755;28;20025;-71
2022/03/23 08:36:47;;;;;;;10.48;7.50;;;;;;;;;;5077265;28;20396;-71
2022/03/23 08:39:14;;;;;;;13.98;7.82;;;;;;;;;;5079522;28;20024;-72
2022/03/23 08:41:40;;;;;;;13.65;8.05;;;;;;;;;;5060899;28;20416;-71
2022/03/23 08:44:07;;;;;;;14.10;8.80;;;;;;;;;;5060721;28;20398;-71
2022/03/23 08:46:33;;;;;;;14.35;7.18;;;;;;;;;;5077398;28;20020;-71
2022/03/23 08:48:59;;;;;;;10.20;6.90;;;;;;;;;;5075285;28;20505;-71
2022/03/23 08:51:26;;;;;;;9.82;4.97;;;;;;;;;;5079258;28;20016;-71
2022/03/23 08:53:52;;;;;;;9.85;5.53;;;;;;;;;;5078129;28;20060;-71
2022/03/23 08:56:19;;;;;;;8.07;4.65;;;;;;;;;;5060613;28;20050;-71
2022/03/23 08:58:49;;;;;;;9.55;4.43;;;;;;;;;;5078167;28;20028;-71
2022/03/23 09:01:18;;;;;;;8.35;5.32;;;;;;;;;;5074413;28;20424;-71
2022/03/23 09:03:44;;;;;;;9.25;4.82;;;;;;;;;;5077266;28;20040;-71
2022/03/23 09:06:11;;;;;;;8.90;5.10;;;;;;;;;;5078737;28;20031;-71
2022/03/23 09:08:37;;;;;;;9.07;5.25;;;;;;;;;;5078215;28;20428;-71
2022/03/23 09:11:04;;;;;;;8.70;4.80;;;;;;;;;;5078000;28;20031;-71
2022/03/23 09:13:30;;;;;;;6.50;4.35;;;;;;;;;;5076226;28;20408;-70
2022/03/23 09:15:57;;;;;;;5.00;4.05;;;;;;;;;;5075017;28;20017;-72
2022/03/23 09:18:26;;;;;;;5.25;4.05;;;;;;;;;;5079002;28;20037;-71
2022/03/23 09:20:53;;;;;;;7.70;3.88;;;;;;;;;;5078063;28;20032;-71
2022/03/23 09:23:19;;;;;;;8.45;4.13;;;;;;;;;;5077935;28;20031;-71
2022/03/23 09:25:45;;;;;;;6.95;4.20;;;;;;;;;;5075893;28;20023;-70
2022/03/23 09:28:12;;;;;;;7.80;4.50;;;;;;;;;;5073717;28;20031;-71
2022/03/23 09:30:38;;;;;;;5.85;4.13;;;;;;;;;;5077958;28;20029;-71
2022/03/23 09:33:06;;;;;;;5.28;4.10;;;;;;;;;;5075360;28;20029;-71
2022/03/23 09:35:32;;;;;;;7.90;4.32;;;;;;;;;;5069076;28;20513;-70
2022/03/23 09:38:03;;;;;;;9.95;4.32;;;;;;;;;;5076509;28;20028;-71
2022/03/23 09:40:32;;;;;;;9.48;4.43;;;;;;;;;;5075750;28;20021;-71
2022/03/23 09:42:59;;;;;;;11.55;4.28;;;;;;;;;;5072891;28;20043;-71
2022/03/23 09:45:46;;;;;;;6.45;4.28;;;;;;;;;;5087669;28;20023;-71
2022/03/23 09:48:13;;;;;;;7.38;4.60;;;;;;;;;;5076209;28;20526;-71
2022/03/23 09:50:41;;;;;;;7.82;4.35;;;;;;;;;;5076270;28;20024;-71
2022/03/23 09:53:07;;;;;;;7.88;4.28;;;;;;;;;;5077491;28;20020;-71
2022/03/23 09:55:34;;;;;;;5.80;3.90;;;;;;;;;;5054972;28;20043;-71
2022/03/23 09:58:01;;;;;;;7.35;4.35;;;;;;;;;;5053342;28;20037;-71
2022/03/23 10:00:33;;;;;;;8.07;3.97;;;;;;;;;;5071049;28;20032;-71
2022/03/23 10:02:59;;;;;;;6.20;3.97;;;;;;;;;;5057287;28;20021;-71
2022/03/23 10:05:28;;;;;;;6.22;3.75;;;;;;;;;;5055815;28;20057;-71
2022/03/23 10:08:19;;;;;;;6.97;4.50;;;;;;;;;;5056442;28;20385;-71
2022/03/23 10:11:04;;;;;;;6.10;4.05;;;;;;;;;;5055900;28;20032;-71
2022/03/23 10:13:49;;;;;;;5.88;4.00;;;;;;;;;;5036820;28;20035;-71
2022/03/23 10:16:34;;;;;;;5.25;4.00;;;;;;;;;;5037434;28;20040;-71
2022/03/23 10:19:00;;;;;;;7.22;4.40;;;;;;;;;;5035873;28;20614;-71
2022/03/23 10:21:37;;;;;;;8.35;4.18;;;;;;;;;;5057070;28;20017;-71
2022/03/23 10:24:03;;;;;;;6.05;4.53;;;;;;;;;;5056486;28;20017;-71
2022/03/23 10:26:31;;;;;;;7.10;3.90;;;;;;;;;;5056801;28;20031;-71
2022/03/23 10:28:58;;;;;;;7.90;4.30;;;;;;;;;;5056084;28;20504;-71
2022/03/23 10:31:25;;;;;;;5.70;4.07;;;;;;;;;;5052705;28;20029;-71
2022/03/23 10:34:08;;;;;;;5.47;4.00;;;;;;;;;;5054329;28;20512;-71
2022/03/23 10:36:40;;;;;;;8.20;4.53;;;;;;;;;;5056834;28;20037;-70
2022/03/23 10:39:10;;;;;;;7.30;3.97;;;;;;;;;;5056412;28;20031;-71
2022/03/23 10:41:36;;;;;;;5.70;4.57;;;;;;;;;;5055765;28;20489;-70
2022/03/23 10:44:03;;;;;;;6.70;4.63;;;;;;;;;;5055241;28;20031;-71
2022/03/23 10:46:29;;;;;;;5.20;4.10;;;;;;;;;;5054011;28;20490;-71
2022/03/23 10:49:01;;;;;;;11.35;4.55;;;;;;;;;;5053180;28;20037;-71
2022/03/23 10:51:30;;;;;;;7.90;4.47;;;;;;;;;;5056628;28;20029;-71
2022/03/23 10:53:57;;;;;;;6.43;4.18;;;;;;;;;;5055147;28;20033;-69
2022/03/23 10:56:38;;;;;;;9.23;4.50;;;;;;;;;;5054569;28;20035;-70
2022/03/23 10:59:17;;;;;;;6.93;4.70;;;;;;;;;;5056528;28;20012;-69
2022/03/23 11:01:55;;;;;;;8.15;4.60;;;;;;;;;;5056190;28;20489;-71
2022/03/23 11:04:22;;;;;;;6.15;4.07;;;;;;;;;;5052249;28;20394;-70
2022/03/23 11:06:49;;;;;;;7.82;4.93;;;;;;;;;;5053546;28;20025;-70
2022/03/23 11:17:49;;;;;;;8.65;4.65;;;;;;;;;;5056344;28;20021;-70
2022/03/23 11:20:18;;;;;;;7.72;4.55;;;;;;;;;;5055795;28;20032;-69
2022/03/23 11:22:45;;;;;;;7.30;4.67;;;;;;;;;;5055556;28;20016;-71
2022/03/23 11:25:11;;;;;;;9.68;4.55;;;;;;;;;;5050893;28;20017;-70
2022/03/23 11:27:40;;;;;;;9.82;4.85;;;;;;;;;;5055808;28;20025;-71
2022/03/23 11:30:06;;;;;;;6.55;4.63;;;;;;;;;;5055671;28;20501;-70
2022/03/23 11:32:37;;;;;;;12.65;5.07;;;;;;;;;;5055804;28;20045;-70
2022/03/23 11:35:09;;;;;;;6.53;4.35;;;;;;;;;;5055446;28;20037;-71
2022/03/23 11:37:38;;;;;;;5.95;4.82;;;;;;;;;;5054334;28;20493;-70
2022/03/23 11:40:05;;;;;;;7.32;4.88;;;;;;;;;;5051117;28;20516;-71
2022/03/23 11:42:32;;;;;;;13.63;5.20;;;;;;;;;;5056344;28;20024;-71
2022/03/23 11:44:59;;;;;;;6.47;4.68;;;;;;;;;;5055566;28;20043;-71
2022/03/23 11:47:38;;;;;;;6.60;4.78;;;;;;;;;;5055812;28;20016;-71
2022/03/23 11:50:04;;;;;;;7.57;4.63;;;;;;;;;;5055276;28;20485;-70
2022/03/23 11:52:34;;;;;;;10.60;4.78;;;;;;;;;;5050535;28;21485;-71
2022/03/23 11:57:55;;;;;;;10.23;4.93;;;;;;;;;;5066438;28;20035;-70
2022/03/23 12:00:22;;;;;;;8.82;5.10;;;;;;;;;;5083454;28;20028;-71
2022/03/23 12:02:50;;;;;;;7.25;6.18;;;;;;;;;;5077439;28;20024;-71
2022/03/23 12:05:22;;;;;;;6.82;5.10;;;;;;;;;;5075219;28;20031;-69
2022/03/23 12:07:49;;;;;;;10.57;4.90;;;;;;;;;;5075051;28;20031;-69
2022/03/23 12:10:20;;;;;;;8.45;5.07;;;;;;;;;;5069927;28;20039;-71
2022/03/23 12:12:46;;;;;;;;;;;;;;;;;;5072275;28;20024;-71
2022/03/23 12:15:18;;;;;;;7.63;5.10;;;;;;;;;;5068040;28;20288;-70
2022/03/23 12:17:57;;;;;;;7.35;4.70;;;;;;;;;;5071478;28;20023;-71
2022/03/23 12:20:33;;;;;;;6.30;4.95;;;;;;;;;;5074055;28;20040;-70
2022/03/23 12:23:16;;;;;;;15.80;6.15;;;;;;;;;;5074785;28;20024;-71
2022/03/23 12:25:42;;;;;;;7.72;5.30;;;;;;;;;;5073604;28;20027;-71
2022/03/23 12:28:28;;;;;;;8.95;4.93;;;;;;;;;;5053708;28;20031;-71
2022/03/23 12:30:55;;;;;;;7.45;4.80;;;;;;;;;;5062709;28;20020;-71
2022/03/23 12:33:22;;;;;;;7.72;4.80;;;;;;;;;;5071712;28;20388;-71
2022/03/23 12:35:49;;;;;;;8.88;4.95;;;;;;;;;;5074176;28;20044;-71
2022/03/23 12:38:21;;;;;;;8.00;5.20;;;;;;;;;;5073970;28;20036;-71
2022/03/23 12:40:49;;;;;;;8.00;5.18;;;;;;;;;;5073864;28;20489;-71
2022/03/23 12:43:32;;;;;;;10.38;5.13;;;;;;;;;;5070554;28;20025;-71
2022/03/23 12:45:59;;;;;;;5.10;4.53;;;;;;;;;;5052849;28;20031;-71
2022/03/23 12:59:37;;;;;;;5.88;4.50;;;;;;;;;;5074075;28;20021;-70
2022/03/23 13:02:23;;;;;;;12.25;4.80;;;;;;;;;;5074432;28;20032;-71
2022/03/23 13:04:52;;;;;;;7.22;4.70;;;;;;;;;;5074060;28;20089;-70
2022/03/23 13:07:35;;;;;;;6.20;4.85;;;;;;;;;;5070291;28;20504;-70
2022/03/23 13:10:09;;;;;;;8.55;4.43;;;;;;;;;;5070489;28;20047;-71
2022/03/23 13:12:38;;;;;;;6.22;4.75;;;;;;;;;;5076648;28;20020;-71
2022/03/23 13:15:15;;;;;;;7.38;5.00;;;;;;;;;;5077500;28;20036;-71
2022/03/23 13:17:42;;;;;;;11.02;4.60;;;;;;;;;;5077899;28;20019;-71
2022/03/23 13:20:10;;;;;;;6.03;4.47;;;;;;;;;;5077660;28;20431;-71
2022/03/23 13:22:38;;;;;;;8.30;4.32;;;;;;;;;;5076456;28;20020;-71
2022/03/23 13:25:06;;;;;;;7.25;4.80;;;;;;;;;;5073895;28;20017;-71
2022/03/23 13:27:32;;;;;;;8.18;4.60;;;;;;;;;;5078373;28;20020;-71
2022/03/23 13:29:59;;;;;;;7.80;4.95;;;;;;;;;;5059910;28;20028;-71
2022/03/23 13:32:39;;;;;;;8.10;4.65;;;;;;;;;;5077614;28;20484;-71
2022/03/23 13:35:16;;;;;;;6.47;4.10;;;;;;;;;;5077386;28;20504;-71
2022/03/23 13:38:11;;;;;;;10.10;4.97;;;;;;;;;;5077228;28;20485;-71
2022/03/23 13:43:30;;;;;;;7.75;4.70;;;;;;;;;;5061584;28;20036;-70
2022/03/23 13:45:58;;;;;;;9.77;4.95;;;;;;;;;;5074612;28;20043;-69
2022/03/23 13:48:34;;;;;;;8.18;4.88;;;;;;;;;;5077850;28;20040;-71
2022/03/23 13:51:01;;;;;;;9.85;4.63;;;;;;;;;;5077174;28;20400;-69
2022/03/23 13:53:28;;;;;;;9.45;5.03;;;;;;;;;;5051612;28;20061;-70
2022/03/23 13:55:55;;;;;;;6.85;4.70;;;;;;;;;;5057237;28;20523;-71
2022/03/23 13:58:22;;;;;;;7.65;5.32;;;;;;;;;;5053992;28;20031;-71
2022/03/23 14:00:50;;;;;;;10.07;5.05;;;;;;;;;;5055956;28;20033;-71
2022/03/23 14:03:20;;;;;;;8.43;4.90;;;;;;;;;;5057630;28;20497;-71
2022/03/23 14:06:05;;;;;;;9.07;5.35;;;;;;;;;;5057172;28;20024;-70
2022/03/23 14:08:38;;;;;;;7.03;4.85;;;;;;;;;;5057228;28;20024;-71
2022/03/23 14:11:05;;;;;;;7.95;4.85;;;;;;;;;;5057021;28;20367;-71
2022/03/23 14:13:38;;;;;;;9.98;5.28;;;;;;;;;;5055633;28;20054;-71
2022/03/23 14:16:05;;;;;;;8.25;4.80;;;;;;;;;;5052776;28;20044;-71
2022/03/23 14:18:33;;;;;;;8.77;4.88;;;;;;;;;;5056678;28;20390;-69
2022/03/23 14:21:03;;;;;;;8.38;4.97;;;;;;;;;;5056627;28;20078;-70
2022/03/23 14:23:31;;;;;;;7.20;5.13;;;;;;;;;;5056420;28;20023;-70
2022/03/23 14:25:58;;;;;;;7.35;4.55;;;;;;;;;;5056650;28;20051;-70
2022/03/23 14:28:25;;;;;;;8.77;5.20;;;;;;;;;;5054080;28;20021;-69
2022/03/23 14:31:01;;;;;;;8.70;5.32;;;;;;;;;;5053046;28;20024;-70
2022/03/23 14:33:28;;;;;;;6.65;4.70;;;;;;;;;;5055817;28;20025;-69
2022/03/23 14:35:55;;;;;;;7.05;3.97;;;;;;;;;;5056252;28;20047;-69
2022/03/23 14:38:25;;;;;;;8.52;5.03;;;;;;;;;;5056876;28;20088;-70
2022/03/23 14:41:00;;;;;;;15.80;4.70;;;;;;;;;;5056335;28;20016;-70
2022/03/23 14:43:31;;;;;;;9.50;4.85;;;;;;;;;;5053875;28;20040;-70
2022/03/23 14:45:58;;;;;;;8.75;4.40;;;;;;;;;;5052707;28;20036;-70
2022/03/23 14:48:30;;;;;;;9.73;5.07;;;;;;;;;;5045845;28;20375;-71
2022/03/23 14:50:59;;;;;;;8.38;3.70;;;;;;;;;;5044039;28;20025;-68
2022/03/23 14:53:29;;;;;;;9.88;5.15;;;;;;;;;;5032391;28;21040;-69
2022/03/23 14:55:56;;;;;;;8.17;4.87;;;;;;;;;;5063974;28;20041;-70
2022/03/23 14:58:26;;;;;;;7.95;4.60;;;;;;;;;;5068663;28;20033;-70
2022/03/23 15:00:53;;;;;;;7.45;4.38;;;;;;;;;;5067720;28;20039;-71
2022/03/23 15:03:19;;;;;;;5.70;3.65;;;;;;;;;;5063202;28;20029;-70
2022/03/23 15:14:01;;;;;;;11.80;4.80;;;;;;;;;;5062506;28;20025;-70
2022/03/23 15:16:27;;;;;;;11.85;4.63;;;;;;;;;;5067937;28;20396;-70
2022/03/23 15:18:53;;;;;;;7.35;4.75;;;;;;;;;;5066654;28;20011;-70
2022/03/23 15:21:20;;;;;;;10.85;5.10;;;;;;;;;;5065164;28;20025;-70
2022/03/23 15:23:48;;;;;;;6.43;4.97;;;;;;;;;;5074930;28;20017;-71
2022/03/23 15:26:19;;;;;;;12.05;5.35;;;;;;;;;;5052818;28;20032;-71
2022/03/23 15:28:46;;;;;;;6.75;5.32;;;;;;;;;;5067574;28;20033;-70